sensor_id;sensor_type;location;lat;lon;timestamp;P1;durP1;ratioP1;P2;durP2;ratioP2
39454;SDS011;25155;41.890;23.446;2022-11-15T00:00:01;13.88;;;9.30;;
39454;SDS011;25155;41.890;23.446;2022-11-15T00:02:29;13.27;;;8.65;;
39454;SDS011;25155;41.890;23.446;2022-11-15T00:04:56;12.07;;;7.97;;
39454;SDS011;25155;41.890;23.446;2022-11-15T00:07:24;10.35;;;7.38;;
39454;SDS011;25155;41.890;23.446;2022-11-15T00:09:52;11.40;;;8.00;;
39454;SDS011;25155;41.890;23.446;2022-11-15T00:12:19;13.35;;;9.35;;
39454;SDS011;25155;41.890;23.446;2022-11-15T00:14:46;15.63;;;9.27;;
39454;SDS011;25155;41.890;23.446;2022-11-15T00:17:13;17.25;;;10.70;;
39454;SDS011;25155;41.890;23.446;2022-11-15T00:19:40;13.52;;;9.35;;
39454;SDS011;25155;41.890;23.446;2022-11-15T00:22:08;14.55;;;10.30;;
39454;SDS011;25155;41.890;23.446;2022-11-15T00:24:36;14.00;;;9.02;;
39454;SDS011;25155;41.890;23.446;2022-11-15T00:27:04;12.35;;;8.00;;
39454;SDS011;25155;41.890;23.446;2022-11-15T00:29:31;10.85;;;7.60;;
39454;SDS011;25155;41.890;23.446;2022-11-15T00:31:58;9.77;;;6.55;;
39454;SDS011;25155;41.890;23.446;2022-11-15T00:34:25;12.43;;;7.13;;
39454;SDS011;25155;41.890;23.446;2022-11-15T00:36:52;12.38;;;7.88;;
39454;SDS011;25155;41.890;23.446;2022-11-15T00:39:20;13.45;;;9.05;;
39454;SDS011;25155;41.890;23.446;2022-11-15T00:41:48;15.10;;;11.05;;
39454;SDS011;25155;41.890;23.446;2022-11-15T00:44:15;10.38;;;8.07;;
39454;SDS011;25155;41.890;23.446;2022-11-15T00:46:42;9.10;;;6.95;;
39454;SDS011;25155;41.890;23.446;2022-11-15T00:49:10;14.32;;;9.93;;
39454;SDS011;25155;41.890;23.446;2022-11-15T00:51:37;14.27;;;10.63;;
39454;SDS011;25155;41.890;23.446;2022-11-15T00:54:04;12.30;;;9.23;;
39454;SDS011;25155;41.890;23.446;2022-11-15T00:56:31;14.02;;;9.48;;
39454;SDS011;25155;41.890;23.446;2022-11-15T00:59:00;10.43;;;7.13;;
39454;SDS011;25155;41.890;23.446;2022-11-15T01:01:27;9.15;;;6.22;;
39454;SDS011;25155;41.890;23.446;2022-11-15T01:03:55;7.90;;;5.63;;
39454;SDS011;25155;41.890;23.446;2022-11-15T01:06:23;9.30;;;6.55;;
39454;SDS011;25155;41.890;23.446;2022-11-15T01:08:50;8.70;;;6.13;;
39454;SDS011;25155;41.890;23.446;2022-11-15T01:11:17;10.13;;;7.22;;
39454;SDS011;25155;41.890;23.446;2022-11-15T01:13:44;12.80;;;8.35;;
39454;SDS011;25155;41.890;23.446;2022-11-15T01:16:14;16.05;;;11.68;;
39454;SDS011;25155;41.890;23.446;2022-11-15T01:18:43;13.23;;;9.43;;
39454;SDS011;25155;41.890;23.446;2022-11-15T01:21:15;10.25;;;7.57;;
39454;SDS011;25155;41.890;23.446;2022-11-15T01:23:44;10.30;;;7.72;;
39454;SDS011;25155;41.890;23.446;2022-11-15T01:26:11;10.30;;;6.82;;
39454;SDS011;25155;41.890;23.446;2022-11-15T01:28:41;10.52;;;7.53;;
39454;SDS011;25155;41.890;23.446;2022-11-15T01:31:10;9.07;;;6.13;;
39454;SDS011;25155;41.890;23.446;2022-11-15T01:33:40;10.27;;;6.95;;
39454;SDS011;25155;41.890;23.446;2022-11-15T01:36:10;9.18;;;6.30;;
39454;SDS011;25155;41.890;23.446;2022-11-15T01:38:38;9.18;;;6.63;;
39454;SDS011;25155;41.890;23.446;2022-11-15T01:41:06;9.25;;;6.28;;
39454;SDS011;25155;41.890;23.446;2022-11-15T01:43:40;14.13;;;8.23;;
39454;SDS011;25155;41.890;23.446;2022-11-15T01:46:11;8.40;;;6.07;;
39454;SDS011;25155;41.890;23.446;2022-11-15T01:48:50;8.50;;;6.00;;
39454;SDS011;25155;41.890;23.446;2022-11-15T01:51:20;7.93;;;5.50;;
39454;SDS011;25155;41.890;23.446;2022-11-15T01:53:52;7.28;;;5.05;;
39454;SDS011;25155;41.890;23.446;2022-11-15T01:56:23;8.40;;;5.68;;
39454;SDS011;25155;41.890;23.446;2022-11-15T01:58:55;8.20;;;5.55;;
39454;SDS011;25155;41.890;23.446;2022-11-15T02:01:26;7.45;;;5.03;;
39454;SDS011;25155;41.890;23.446;2022-11-15T02:03:59;7.72;;;5.30;;
39454;SDS011;25155;41.890;23.446;2022-11-15T02:06:29;6.55;;;4.35;;
39454;SDS011;25155;41.890;23.446;2022-11-15T02:08:57;8.13;;;5.68;;
39454;SDS011;25155;41.890;23.446;2022-11-15T02:11:25;9.57;;;6.43;;
39454;SDS011;25155;41.890;23.446;2022-11-15T02:13:53;8.70;;;6.03;;
39454;SDS011;25155;41.890;23.446;2022-11-15T02:16:27;7.28;;;5.00;;
39454;SDS011;25155;41.890;23.446;2022-11-15T02:19:07;9.77;;;6.03;;
39454;SDS011;25155;41.890;23.446;2022-11-15T02:21:49;10.02;;;6.47;;
39454;SDS011;25155;41.890;23.446;2022-11-15T02:27:30;6.97;;;5.07;;
39454;SDS011;25155;41.890;23.446;2022-11-15T02:30:36;9.27;;;6.13;;
39454;SDS011;25155;41.890;23.446;2022-11-15T02:33:10;9.88;;;6.47;;
39454;SDS011;25155;41.890;23.446;2022-11-15T02:35:48;9.60;;;6.55;;
39454;SDS011;25155;41.890;23.446;2022-11-15T02:38:26;9.05;;;5.80;;
39454;SDS011;25155;41.890;23.446;2022-11-15T02:41:00;11.32;;;7.22;;
39454;SDS011;25155;41.890;23.446;2022-11-15T02:43:33;9.55;;;6.63;;
39454;SDS011;25155;41.890;23.446;2022-11-15T02:46:23;16.58;;;11.40;;
39454;SDS011;25155;41.890;23.446;2022-11-15T02:49:08;13.50;;;8.15;;
39454;SDS011;25155;41.890;23.446;2022-11-15T02:51:38;14.20;;;9.23;;
39454;SDS011;25155;41.890;23.446;2022-11-15T02:54:06;12.55;;;7.63;;
39454;SDS011;25155;41.890;23.446;2022-11-15T02:56:33;13.77;;;9.02;;
39454;SDS011;25155;41.890;23.446;2022-11-15T02:59:05;11.10;;;7.70;;
39454;SDS011;25155;41.890;23.446;2022-11-15T03:01:52;10.50;;;6.75;;
39454;SDS011;25155;41.890;23.446;2022-11-15T03:04:33;10.40;;;6.57;;
39454;SDS011;25155;41.890;23.446;2022-11-15T03:07:11;9.98;;;7.00;;
39454;SDS011;25155;41.890;23.446;2022-11-15T03:09:44;11.40;;;7.93;;
39454;SDS011;25155;41.890;23.446;2022-11-15T03:12:20;14.25;;;9.05;;
39454;SDS011;25155;41.890;23.446;2022-11-15T03:14:54;12.43;;;8.55;;
39454;SDS011;25155;41.890;23.446;2022-11-15T03:17:29;10.52;;;7.05;;
39454;SDS011;25155;41.890;23.446;2022-11-15T03:20:00;8.25;;;5.63;;
39454;SDS011;25155;41.890;23.446;2022-11-15T03:22:32;7.80;;;5.00;;
39454;SDS011;25155;41.890;23.446;2022-11-15T03:25:02;6.13;;;4.30;;
39454;SDS011;25155;41.890;23.446;2022-11-15T03:27:33;5.80;;;3.92;;
39454;SDS011;25155;41.890;23.446;2022-11-15T03:30:05;6.25;;;3.97;;
39454;SDS011;25155;41.890;23.446;2022-11-15T03:32:37;7.07;;;4.93;;
39454;SDS011;25155;41.890;23.446;2022-11-15T03:35:10;7.15;;;5.00;;
39454;SDS011;25155;41.890;23.446;2022-11-15T03:37:40;7.13;;;4.53;;
39454;SDS011;25155;41.890;23.446;2022-11-15T03:40:13;5.68;;;3.80;;
39454;SDS011;25155;41.890;23.446;2022-11-15T03:42:43;6.75;;;4.30;;
39454;SDS011;25155;41.890;23.446;2022-11-15T03:45:16;7.30;;;4.82;;
39454;SDS011;25155;41.890;23.446;2022-11-15T03:47:51;7.28;;;4.95;;
39454;SDS011;25155;41.890;23.446;2022-11-15T03:50:25;7.00;;;4.93;;
39454;SDS011;25155;41.890;23.446;2022-11-15T03:52:53;6.43;;;4.40;;
39454;SDS011;25155;41.890;23.446;2022-11-15T03:55:21;10.60;;;6.53;;
39454;SDS011;25155;41.890;23.446;2022-11-15T03:57:50;10.05;;;6.38;;
39454;SDS011;25155;41.890;23.446;2022-11-15T04:00:19;8.00;;;5.43;;
39454;SDS011;25155;41.890;23.446;2022-11-15T04:02:47;10.50;;;7.35;;
39454;SDS011;25155;41.890;23.446;2022-11-15T04:05:15;10.40;;;7.00;;
39454;SDS011;25155;41.890;23.446;2022-11-15T04:07:43;8.90;;;5.78;;
39454;SDS011;25155;41.890;23.446;2022-11-15T04:10:10;9.45;;;6.03;;
39454;SDS011;25155;41.890;23.446;2022-11-15T04:12:39;9.73;;;6.40;;
39454;SDS011;25155;41.890;23.446;2022-11-15T04:15:09;14.32;;;10.50;;
39454;SDS011;25155;41.890;23.446;2022-11-15T04:17:38;19.67;;;12.60;;
39454;SDS011;25155;41.890;23.446;2022-11-15T04:20:07;19.90;;;13.68;;
39454;SDS011;25155;41.890;23.446;2022-11-15T04:22:56;20.08;;;14.20;;
39454;SDS011;25155;41.890;23.446;2022-11-15T04:25:41;22.33;;;15.07;;
39454;SDS011;25155;41.890;23.446;2022-11-15T04:28:09;24.00;;;16.25;;
39454;SDS011;25155;41.890;23.446;2022-11-15T04:30:37;23.23;;;15.60;;
39454;SDS011;25155;41.890;23.446;2022-11-15T04:33:04;32.65;;;22.92;;
39454;SDS011;25155;41.890;23.446;2022-11-15T04:35:31;33.60;;;25.17;;
39454;SDS011;25155;41.890;23.446;2022-11-15T04:38:00;36.38;;;25.80;;
39454;SDS011;25155;41.890;23.446;2022-11-15T04:40:28;35.30;;;25.25;;
39454;SDS011;25155;41.890;23.446;2022-11-15T04:42:55;37.22;;;25.30;;
39454;SDS011;25155;41.890;23.446;2022-11-15T04:45:23;40.75;;;24.88;;
39454;SDS011;25155;41.890;23.446;2022-11-15T04:47:50;29.33;;;20.05;;
39454;SDS011;25155;41.890;23.446;2022-11-15T04:50:18;29.35;;;19.02;;
39454;SDS011;25155;41.890;23.446;2022-11-15T04:52:49;24.98;;;16.52;;
39454;SDS011;25155;41.890;23.446;2022-11-15T04:55:19;29.08;;;18.65;;
39454;SDS011;25155;41.890;23.446;2022-11-15T04:57:47;24.98;;;17.30;;
39454;SDS011;25155;41.890;23.446;2022-11-15T05:00:15;27.58;;;20.10;;
39454;SDS011;25155;41.890;23.446;2022-11-15T05:02:43;26.58;;;18.85;;
39454;SDS011;25155;41.890;23.446;2022-11-15T05:05:27;37.05;;;25.50;;
39454;SDS011;25155;41.890;23.446;2022-11-15T05:07:54;34.17;;;25.08;;
39454;SDS011;25155;41.890;23.446;2022-11-15T05:10:23;51.00;;;34.40;;
39454;SDS011;25155;41.890;23.446;2022-11-15T05:12:50;44.33;;;31.30;;
39454;SDS011;25155;41.890;23.446;2022-11-15T05:15:18;50.08;;;34.08;;
39454;SDS011;25155;41.890;23.446;2022-11-15T05:17:45;41.65;;;29.90;;
39454;SDS011;25155;41.890;23.446;2022-11-15T05:20:12;38.90;;;26.33;;
39454;SDS011;25155;41.890;23.446;2022-11-15T05:22:40;36.35;;;24.83;;
39454;SDS011;25155;41.890;23.446;2022-11-15T05:25:08;39.90;;;25.05;;
39454;SDS011;25155;41.890;23.446;2022-11-15T05:27:42;38.72;;;26.13;;
39454;SDS011;25155;41.890;23.446;2022-11-15T05:30:10;54.58;;;34.45;;
39454;SDS011;25155;41.890;23.446;2022-11-15T05:32:37;50.75;;;32.83;;
39454;SDS011;25155;41.890;23.446;2022-11-15T05:35:05;46.10;;;30.42;;
39454;SDS011;25155;41.890;23.446;2022-11-15T05:37:35;57.20;;;37.40;;
39454;SDS011;25155;41.890;23.446;2022-11-15T05:40:03;49.05;;;33.17;;
39454;SDS011;25155;41.890;23.446;2022-11-15T05:42:31;42.88;;;29.65;;
39454;SDS011;25155;41.890;23.446;2022-11-15T05:45:00;62.03;;;43.00;;
39454;SDS011;25155;41.890;23.446;2022-11-15T05:47:29;78.00;;;50.57;;
39454;SDS011;25155;41.890;23.446;2022-11-15T05:49:58;58.25;;;41.08;;
39454;SDS011;25155;41.890;23.446;2022-11-15T05:52:25;137.27;;;82.68;;
39454;SDS011;25155;41.890;23.446;2022-11-15T05:54:57;90.43;;;55.92;;
39454;SDS011;25155;41.890;23.446;2022-11-15T05:57:25;75.25;;;48.10;;
39454;SDS011;25155;41.890;23.446;2022-11-15T05:59:53;60.03;;;41.88;;
39454;SDS011;25155;41.890;23.446;2022-11-15T06:02:22;62.78;;;41.30;;
39454;SDS011;25155;41.890;23.446;2022-11-15T06:04:50;73.80;;;49.90;;
39454;SDS011;25155;41.890;23.446;2022-11-15T06:07:17;78.50;;;51.67;;
39454;SDS011;25155;41.890;23.446;2022-11-15T06:09:44;77.13;;;50.85;;
39454;SDS011;25155;41.890;23.446;2022-11-15T06:12:12;101.90;;;62.17;;
39454;SDS011;25155;41.890;23.446;2022-11-15T06:14:39;145.98;;;89.72;;
39454;SDS011;25155;41.890;23.446;2022-11-15T06:17:07;119.30;;;75.78;;
39454;SDS011;25155;41.890;23.446;2022-11-15T06:19:38;91.28;;;60.65;;
39454;SDS011;25155;41.890;23.446;2022-11-15T06:22:05;76.45;;;52.58;;
39454;SDS011;25155;41.890;23.446;2022-11-15T06:24:32;76.15;;;48.70;;
39454;SDS011;25155;41.890;23.446;2022-11-15T06:26:59;64.13;;;43.85;;
39454;SDS011;25155;41.890;23.446;2022-11-15T06:29:27;74.85;;;48.42;;
39454;SDS011;25155;41.890;23.446;2022-11-15T06:31:54;71.38;;;45.95;;
39454;SDS011;25155;41.890;23.446;2022-11-15T06:34:23;61.80;;;42.95;;
39454;SDS011;25155;41.890;23.446;2022-11-15T06:36:51;60.60;;;41.97;;
39454;SDS011;25155;41.890;23.446;2022-11-15T06:39:19;55.92;;;39.58;;
39454;SDS011;25155;41.890;23.446;2022-11-15T06:41:46;52.72;;;37.78;;
39454;SDS011;25155;41.890;23.446;2022-11-15T06:44:13;87.22;;;59.67;;
39454;SDS011;25155;41.890;23.446;2022-11-15T06:46:41;121.78;;;83.18;;
39454;SDS011;25155;41.890;23.446;2022-11-15T06:49:08;104.50;;;67.00;;
39454;SDS011;25155;41.890;23.446;2022-11-15T06:51:36;100.55;;;66.72;;
39454;SDS011;25155;41.890;23.446;2022-11-15T06:54:05;99.13;;;66.20;;
39454;SDS011;25155;41.890;23.446;2022-11-15T06:56:33;102.93;;;65.68;;
39454;SDS011;25155;41.890;23.446;2022-11-15T06:59:00;122.82;;;72.20;;
39454;SDS011;25155;41.890;23.446;2022-11-15T07:01:28;128.07;;;81.80;;
39454;SDS011;25155;41.890;23.446;2022-11-15T07:03:55;126.60;;;78.40;;
39454;SDS011;25155;41.890;23.446;2022-11-15T07:06:22;144.18;;;89.35;;
39454;SDS011;25155;41.890;23.446;2022-11-15T07:08:50;158.32;;;95.72;;
39454;SDS011;25155;41.890;23.446;2022-11-15T07:11:18;129.85;;;81.45;;
39454;SDS011;25155;41.890;23.446;2022-11-15T07:13:46;147.98;;;87.30;;
39454;SDS011;25155;41.890;23.446;2022-11-15T07:16:13;114.57;;;72.70;;
39454;SDS011;25155;41.890;23.446;2022-11-15T07:18:40;170.52;;;105.97;;
39454;SDS011;25155;41.890;23.446;2022-11-15T07:21:08;141.90;;;93.40;;
39454;SDS011;25155;41.890;23.446;2022-11-15T07:23:38;138.95;;;91.70;;
39454;SDS011;25155;41.890;23.446;2022-11-15T07:26:06;158.30;;;104.05;;
39454;SDS011;25155;41.890;23.446;2022-11-15T07:28:35;145.45;;;101.10;;
39454;SDS011;25155;41.890;23.446;2022-11-15T07:31:02;147.23;;;100.82;;
39454;SDS011;25155;41.890;23.446;2022-11-15T07:33:30;119.57;;;77.63;;
39454;SDS011;25155;41.890;23.446;2022-11-15T07:35:58;143.32;;;96.05;;
39454;SDS011;25155;41.890;23.446;2022-11-15T07:38:27;126.03;;;84.00;;
39454;SDS011;25155;41.890;23.446;2022-11-15T07:40:58;124.28;;;83.30;;
39454;SDS011;25155;41.890;23.446;2022-11-15T07:43:26;136.18;;;94.43;;
39454;SDS011;25155;41.890;23.446;2022-11-15T07:45:56;153.63;;;105.85;;
39454;SDS011;25155;41.890;23.446;2022-11-15T07:48:23;122.30;;;88.47;;
39454;SDS011;25155;41.890;23.446;2022-11-15T07:50:51;106.20;;;76.95;;
39454;SDS011;25155;41.890;23.446;2022-11-15T07:53:18;106.82;;;75.00;;
39454;SDS011;25155;41.890;23.446;2022-11-15T07:55:45;95.28;;;68.18;;
39454;SDS011;25155;41.890;23.446;2022-11-15T07:58:13;109.25;;;79.05;;
39454;SDS011;25155;41.890;23.446;2022-11-15T08:00:40;108.82;;;82.03;;
39454;SDS011;25155;41.890;23.446;2022-11-15T08:03:09;97.97;;;74.82;;
39454;SDS011;25155;41.890;23.446;2022-11-15T08:05:38;101.40;;;78.10;;
39454;SDS011;25155;41.890;23.446;2022-11-15T08:08:07;92.50;;;69.90;;
39454;SDS011;25155;41.890;23.446;2022-11-15T08:10:35;89.40;;;69.88;;
39454;SDS011;25155;41.890;23.446;2022-11-15T08:13:04;79.75;;;61.95;;
39454;SDS011;25155;41.890;23.446;2022-11-15T08:15:33;76.28;;;58.85;;
39454;SDS011;25155;41.890;23.446;2022-11-15T08:18:02;60.30;;;46.63;;
39454;SDS011;25155;41.890;23.446;2022-11-15T08:20:32;78.38;;;57.38;;
39454;SDS011;25155;41.890;23.446;2022-11-15T08:23:00;72.03;;;55.30;;
39454;SDS011;25155;41.890;23.446;2022-11-15T08:25:29;76.70;;;58.38;;
39454;SDS011;25155;41.890;23.446;2022-11-15T08:27:59;49.70;;;39.08;;
39454;SDS011;25155;41.890;23.446;2022-11-15T08:30:28;76.55;;;58.15;;
39454;SDS011;25155;41.890;23.446;2022-11-15T08:32:57;62.53;;;48.33;;
39454;SDS011;25155;41.890;23.446;2022-11-15T08:35:25;46.17;;;35.90;;
39454;SDS011;25155;41.890;23.446;2022-11-15T08:37:53;43.05;;;34.08;;
39454;SDS011;25155;41.890;23.446;2022-11-15T08:40:21;57.47;;;43.60;;
39454;SDS011;25155;41.890;23.446;2022-11-15T08:42:48;60.85;;;46.78;;
39454;SDS011;25155;41.890;23.446;2022-11-15T08:45:15;62.63;;;48.60;;
39454;SDS011;25155;41.890;23.446;2022-11-15T08:47:43;51.47;;;39.67;;
39454;SDS011;25155;41.890;23.446;2022-11-15T08:50:10;64.40;;;50.55;;
39454;SDS011;25155;41.890;23.446;2022-11-15T08:52:37;71.95;;;52.05;;
39454;SDS011;25155;41.890;23.446;2022-11-15T08:55:07;53.92;;;40.40;;
39454;SDS011;25155;41.890;23.446;2022-11-15T08:57:35;66.50;;;51.97;;
39454;SDS011;25155;41.890;23.446;2022-11-15T09:00:02;73.55;;;55.22;;
39454;SDS011;25155;41.890;23.446;2022-11-15T09:02:31;125.57;;;92.43;;
39454;SDS011;25155;41.890;23.446;2022-11-15T09:04:58;103.55;;;85.90;;
39454;SDS011;25155;41.890;23.446;2022-11-15T09:07:25;115.85;;;92.40;;
39454;SDS011;25155;41.890;23.446;2022-11-15T09:09:55;98.50;;;79.93;;
39454;SDS011;25155;41.890;23.446;2022-11-15T09:12:23;109.85;;;92.15;;
39454;SDS011;25155;41.890;23.446;2022-11-15T09:14:51;116.55;;;95.10;;
39454;SDS011;25155;41.890;23.446;2022-11-15T09:17:18;134.30;;;108.00;;
39454;SDS011;25155;41.890;23.446;2022-11-15T09:19:45;120.85;;;100.40;;
39454;SDS011;25155;41.890;23.446;2022-11-15T09:22:13;149.90;;;121.03;;
39454;SDS011;25155;41.890;23.446;2022-11-15T09:24:40;160.80;;;138.90;;
39454;SDS011;25155;41.890;23.446;2022-11-15T09:27:07;121.97;;;104.22;;
39454;SDS011;25155;41.890;23.446;2022-11-15T09:29:36;117.32;;;97.72;;
39454;SDS011;25155;41.890;23.446;2022-11-15T09:32:03;119.13;;;102.50;;
39454;SDS011;25155;41.890;23.446;2022-11-15T09:34:31;94.97;;;79.50;;
39454;SDS011;25155;41.890;23.446;2022-11-15T09:36:58;90.85;;;75.63;;
39454;SDS011;25155;41.890;23.446;2022-11-15T09:39:25;87.25;;;72.53;;
39454;SDS011;25155;41.890;23.446;2022-11-15T09:42:03;70.05;;;57.67;;
39454;SDS011;25155;41.890;23.446;2022-11-15T09:50:12;49.08;;;42.30;;
39454;SDS011;25155;41.890;23.446;2022-11-15T09:52:43;54.75;;;44.55;;
39454;SDS011;25155;41.890;23.446;2022-11-15T09:55:12;51.72;;;45.95;;
39454;SDS011;25155;41.890;23.446;2022-11-15T09:57:48;41.15;;;35.85;;
39454;SDS011;25155;41.890;23.446;2022-11-15T10:00:24;45.40;;;40.00;;
39454;SDS011;25155;41.890;23.446;2022-11-15T10:03:09;38.25;;;34.08;;
39454;SDS011;25155;41.890;23.446;2022-11-15T10:05:39;32.80;;;28.33;;
39454;SDS011;25155;41.890;23.446;2022-11-15T10:11:12;27.85;;;23.92;;
39454;SDS011;25155;41.890;23.446;2022-11-15T10:13:44;25.73;;;21.42;;
39454;SDS011;25155;41.890;23.446;2022-11-15T10:16:20;32.88;;;24.83;;
39454;SDS011;25155;41.890;23.446;2022-11-15T10:19:03;30.88;;;25.60;;
39454;SDS011;25155;41.890;23.446;2022-11-15T10:21:40;25.83;;;21.75;;
39454;SDS011;25155;41.890;23.446;2022-11-15T10:24:17;25.75;;;21.77;;
39454;SDS011;25155;41.890;23.446;2022-11-15T10:26:50;26.80;;;21.23;;
39454;SDS011;25155;41.890;23.446;2022-11-15T10:29:18;23.38;;;19.25;;
39454;SDS011;25155;41.890;23.446;2022-11-15T10:31:48;23.10;;;19.17;;
39454;SDS011;25155;41.890;23.446;2022-11-15T10:34:16;23.65;;;19.52;;
39454;SDS011;25155;41.890;23.446;2022-11-15T10:36:45;25.95;;;19.23;;
39454;SDS011;25155;41.890;23.446;2022-11-15T10:39:13;21.10;;;17.45;;
39454;SDS011;25155;41.890;23.446;2022-11-15T10:41:41;21.23;;;17.85;;
39454;SDS011;25155;41.890;23.446;2022-11-15T10:44:17;19.60;;;16.65;;
39454;SDS011;25155;41.890;23.446;2022-11-15T10:47:03;21.05;;;14.70;;
39454;SDS011;25155;41.890;23.446;2022-11-15T10:49:32;16.33;;;13.70;;
39454;SDS011;25155;41.890;23.446;2022-11-15T10:52:01;25.23;;;17.02;;
39454;SDS011;25155;41.890;23.446;2022-11-15T10:54:33;16.10;;;12.48;;
39454;SDS011;25155;41.890;23.446;2022-11-15T10:57:05;15.50;;;13.10;;
39454;SDS011;25155;41.890;23.446;2022-11-15T10:59:38;19.02;;;15.55;;
39454;SDS011;25155;41.890;23.446;2022-11-15T11:07:55;17.23;;;13.60;;
39454;SDS011;25155;41.890;23.446;2022-11-15T11:10:24;18.08;;;13.18;;
39454;SDS011;25155;41.890;23.446;2022-11-15T11:12:52;20.83;;;16.77;;
39454;SDS011;25155;41.890;23.446;2022-11-15T11:15:20;23.00;;;18.13;;
39454;SDS011;25155;41.890;23.446;2022-11-15T11:17:58;20.90;;;15.32;;
39454;SDS011;25155;41.890;23.446;2022-11-15T11:20:36;24.15;;;17.58;;
39454;SDS011;25155;41.890;23.446;2022-11-15T11:23:15;16.85;;;14.18;;
39454;SDS011;25155;41.890;23.446;2022-11-15T11:25:56;20.52;;;15.52;;
39454;SDS011;25155;41.890;23.446;2022-11-15T11:28:38;21.50;;;15.90;;
39454;SDS011;25155;41.890;23.446;2022-11-15T11:31:19;19.33;;;15.07;;
39454;SDS011;25155;41.890;23.446;2022-11-15T11:33:56;18.77;;;14.75;;
39454;SDS011;25155;41.890;23.446;2022-11-15T11:36:34;16.83;;;13.20;;
39454;SDS011;25155;41.890;23.446;2022-11-15T11:39:24;19.70;;;14.75;;
39454;SDS011;25155;41.890;23.446;2022-11-15T11:42:02;21.70;;;17.95;;
39454;SDS011;25155;41.890;23.446;2022-11-15T11:44:39;21.13;;;17.52;;
39454;SDS011;25155;41.890;23.446;2022-11-15T11:47:19;23.38;;;18.77;;
39454;SDS011;25155;41.890;23.446;2022-11-15T11:49:51;28.20;;;25.10;;
39454;SDS011;25155;41.890;23.446;2022-11-15T11:52:23;27.60;;;24.70;;
39454;SDS011;25155;41.890;23.446;2022-11-15T11:54:58;24.20;;;21.63;;
39454;SDS011;25155;41.890;23.446;2022-11-15T11:57:32;22.98;;;20.55;;
39454;SDS011;25155;41.890;23.446;2022-11-15T12:00:12;26.98;;;24.27;;
39454;SDS011;25155;41.890;23.446;2022-11-15T12:02:45;26.17;;;23.58;;
39454;SDS011;25155;41.890;23.446;2022-11-15T12:05:20;25.20;;;22.70;;
39454;SDS011;25155;41.890;23.446;2022-11-15T12:07:59;23.60;;;21.25;;
39454;SDS011;25155;41.890;23.446;2022-11-15T12:10:35;24.33;;;21.90;;
39454;SDS011;25155;41.890;23.446;2022-11-15T12:13:07;17.95;;;16.15;;
39454;SDS011;25155;41.890;23.446;2022-11-15T12:15:41;18.02;;;16.23;;
39454;SDS011;25155;41.890;23.446;2022-11-15T12:18:12;15.23;;;13.73;;
39454;SDS011;25155;41.890;23.446;2022-11-15T12:20:51;17.15;;;15.45;;
39454;SDS011;25155;41.890;23.446;2022-11-15T12:23:23;15.13;;;13.52;;
39454;SDS011;25155;41.890;23.446;2022-11-15T12:25:58;13.07;;;11.32;;
39454;SDS011;25155;41.890;23.446;2022-11-15T12:28:33;9.95;;;8.80;;
39454;SDS011;25155;41.890;23.446;2022-11-15T12:34:46;8.73;;;6.90;;
39454;SDS011;25155;41.890;23.446;2022-11-15T12:40:25;6.63;;;5.47;;
39454;SDS011;25155;41.890;23.446;2022-11-15T12:43:10;7.30;;;6.43;;
39454;SDS011;25155;41.890;23.446;2022-11-15T12:46:03;9.80;;;7.13;;
39454;SDS011;25155;41.890;23.446;2022-11-15T13:03:18;6.22;;;4.28;;
39454;SDS011;25155;41.890;23.446;2022-11-15T13:05:58;7.28;;;6.30;;
39454;SDS011;25155;41.890;23.446;2022-11-15T13:08:44;6.40;;;5.00;;
39454;SDS011;25155;41.890;23.446;2022-11-15T13:17:28;5.25;;;4.07;;
39454;SDS011;25155;41.890;23.446;2022-11-15T13:19:59;5.70;;;4.80;;
39454;SDS011;25155;41.890;23.446;2022-11-15T13:22:38;7.40;;;5.63;;
39454;SDS011;25155;41.890;23.446;2022-11-15T13:25:26;7.22;;;4.93;;
39454;SDS011;25155;41.890;23.446;2022-11-15T13:28:17;7.35;;;5.50;;
39454;SDS011;25155;41.890;23.446;2022-11-15T13:30:51;6.93;;;5.73;;
39454;SDS011;25155;41.890;23.446;2022-11-15T13:33:20;7.03;;;6.03;;
39454;SDS011;25155;41.890;23.446;2022-11-15T13:35:50;6.45;;;5.47;;
39454;SDS011;25155;41.890;23.446;2022-11-15T13:38:25;6.55;;;5.50;;
39454;SDS011;25155;41.890;23.446;2022-11-15T13:40:54;8.18;;;7.25;;
39454;SDS011;25155;41.890;23.446;2022-11-15T13:43:34;9.68;;;8.68;;
39454;SDS011;25155;41.890;23.446;2022-11-15T13:46:10;9.02;;;7.70;;
39454;SDS011;25155;41.890;23.446;2022-11-15T13:48:40;8.13;;;7.22;;
39454;SDS011;25155;41.890;23.446;2022-11-15T13:51:09;8.93;;;7.82;;
39454;SDS011;25155;41.890;23.446;2022-11-15T13:53:42;8.95;;;8.00;;
39454;SDS011;25155;41.890;23.446;2022-11-15T13:56:13;7.20;;;6.13;;
39454;SDS011;25155;41.890;23.446;2022-11-15T13:58:43;7.07;;;5.97;;
39454;SDS011;25155;41.890;23.446;2022-11-15T14:01:14;8.25;;;7.35;;
39454;SDS011;25155;41.890;23.446;2022-11-15T14:03:49;9.60;;;8.60;;
39454;SDS011;25155;41.890;23.446;2022-11-15T14:06:19;7.55;;;6.75;;
39454;SDS011;25155;41.890;23.446;2022-11-15T14:08:59;6.13;;;4.70;;
39454;SDS011;25155;41.890;23.446;2022-11-15T14:11:29;8.18;;;6.43;;
39454;SDS011;25155;41.890;23.446;2022-11-15T14:14:11;5.50;;;4.53;;
39454;SDS011;25155;41.890;23.446;2022-11-15T14:16:41;5.75;;;4.40;;
39454;SDS011;25155;41.890;23.446;2022-11-15T14:19:10;4.82;;;3.55;;
39454;SDS011;25155;41.890;23.446;2022-11-15T14:24:44;7.60;;;6.50;;
39454;SDS011;25155;41.890;23.446;2022-11-15T14:27:20;6.25;;;4.50;;
39454;SDS011;25155;41.890;23.446;2022-11-15T14:29:51;4.40;;;3.33;;
39454;SDS011;25155;41.890;23.446;2022-11-15T14:32:19;4.10;;;2.80;;
39454;SDS011;25155;41.890;23.446;2022-11-15T14:34:48;4.25;;;2.80;;
39454;SDS011;25155;41.890;23.446;2022-11-15T14:37:20;4.25;;;2.95;;
39454;SDS011;25155;41.890;23.446;2022-11-15T14:39:50;4.88;;;3.20;;
39454;SDS011;25155;41.890;23.446;2022-11-15T14:42:17;4.25;;;3.00;;
39454;SDS011;25155;41.890;23.446;2022-11-15T14:44:45;6.28;;;3.30;;
39454;SDS011;25155;41.890;23.446;2022-11-15T14:47:15;4.82;;;3.42;;
39454;SDS011;25155;41.890;23.446;2022-11-15T14:49:42;4.82;;;3.50;;
39454;SDS011;25155;41.890;23.446;2022-11-15T14:52:19;5.32;;;4.00;;
39454;SDS011;25155;41.890;23.446;2022-11-15T14:54:54;4.90;;;3.20;;
39454;SDS011;25155;41.890;23.446;2022-11-15T14:57:23;4.30;;;3.08;;
39454;SDS011;25155;41.890;23.446;2022-11-15T14:59:50;4.28;;;2.67;;
39454;SDS011;25155;41.890;23.446;2022-11-15T15:02:20;5.22;;;3.97;;
39454;SDS011;25155;41.890;23.446;2022-11-15T15:04:48;5.82;;;4.20;;
39454;SDS011;25155;41.890;23.446;2022-11-15T15:07:16;5.25;;;3.72;;
39454;SDS011;25155;41.890;23.446;2022-11-15T15:09:44;7.35;;;5.38;;
39454;SDS011;25155;41.890;23.446;2022-11-15T15:12:14;6.60;;;4.80;;
39454;SDS011;25155;41.890;23.446;2022-11-15T15:14:44;6.40;;;4.18;;
39454;SDS011;25155;41.890;23.446;2022-11-15T15:17:11;7.38;;;4.80;;
39454;SDS011;25155;41.890;23.446;2022-11-15T15:19:40;7.30;;;5.25;;
39454;SDS011;25155;41.890;23.446;2022-11-15T15:22:09;6.78;;;5.00;;
39454;SDS011;25155;41.890;23.446;2022-11-15T15:24:40;7.95;;;4.60;;